sensor_id;sensor_type;location;lat;lon;timestamp;pressure;altitude;pressure_sealevel;temperature;humidity
54369;BME280;40266;52.434;17.056;2023-08-06T00:00:48;99772.36;;;14.35;100.00
54369;BME280;40266;52.434;17.056;2023-08-06T00:03:51;99768.39;;;14.33;100.00
54369;BME280;40266;52.434;17.056;2023-08-06T00:06:34;99753.64;;;14.33;100.00
54369;BME280;40266;52.434;17.056;2023-08-06T00:09:16;99749.77;;;14.33;100.00
54369;BME280;40266;52.434;17.056;2023-08-06T00:11:59;99742.61;;;14.32;100.00
54369;BME280;40266;52.434;17.056;2023-08-06T00:14:42;99734.35;;;14.33;100.00
54369;BME280;40266;52.434;17.056;2023-08-06T00:17:25;99739.30;;;14.32;100.00
54369;BME280;40266;52.434;17.056;2023-08-06T00:20:09;99748.41;;;14.32;100.00
54369;BME280;40266;52.434;17.056;2023-08-06T00:22:52;99746.11;;;14.33;100.00
54369;BME280;40266;52.434;17.056;2023-08-06T00:25:35;99738.00;;;14.33;100.00
54369;BME280;40266;52.434;17.056;2023-08-06T00:28:19;99724.29;;;14.33;100.00
54369;BME280;40266;52.434;17.056;2023-08-06T00:31:02;99718.77;;;14.35;100.00
54369;BME280;40266;52.434;17.056;2023-08-06T00:33:45;99714.73;;;14.34;100.00
54369;BME280;40266;52.434;17.056;2023-08-06T00:36:28;99704.90;;;14.35;100.00
54369;BME280;40266;52.434;17.056;2023-08-06T00:39:10;99704.19;;;14.35;100.00
54369;BME280;40266;52.434;17.056;2023-08-06T00:41:53;99702.06;;;14.35;100.00
54369;BME280;40266;52.434;17.056;2023-08-06T00:44:37;99691.35;;;14.35;100.00
54369;BME280;40266;52.434;17.056;2023-08-06T00:47:23;99682.23;;;14.35;100.00
54369;BME280;40266;52.434;17.056;2023-08-06T00:50:07;99674.86;;;14.35;100.00
54369;BME280;40266;52.434;17.056;2023-08-06T00:52:50;99671.91;;;14.34;100.00
54369;BME280;40266;52.434;17.056;2023-08-06T00:55:34;99664.47;;;14.36;100.00
54369;BME280;40266;52.434;17.056;2023-08-06T00:58:18;99657.56;;;14.37;100.00
54369;BME280;40266;52.434;17.056;2023-08-06T01:01:01;99650.30;;;14.38;100.00
54369;BME280;40266;52.434;17.056;2023-08-06T01:03:44;99632.37;;;14.39;100.00
54369;BME280;40266;52.434;17.056;2023-08-06T01:06:39;99622.42;;;14.37;100.00
54369;BME280;40266;52.434;17.056;2023-08-06T01:09:45;99611.07;;;14.39;100.00
54369;BME280;40266;52.434;17.056;2023-08-06T01:12:45;99604.25;;;14.39;100.00
54369;BME280;40266;52.434;17.056;2023-08-06T01:15:36;99599.13;;;14.40;100.00
54369;BME280;40266;52.434;17.056;2023-08-06T01:18:23;99598.39;;;14.40;100.00
54369;BME280;40266;52.434;17.056;2023-08-06T01:21:06;99589.44;;;14.40;100.00
54369;BME280;40266;52.434;17.056;2023-08-06T01:23:49;99585.75;;;14.40;100.00
54369;BME280;40266;52.434;17.056;2023-08-06T01:26:37;99588.23;;;14.39;100.00
54369;BME280;40266;52.434;17.056;2023-08-06T01:32:10;99572.31;;;14.38;100.00
54369;BME280;40266;52.434;17.056;2023-08-06T01:34:54;99563.02;;;14.38;100.00
54369;BME280;40266;52.434;17.056;2023-08-06T01:37:38;99557.02;;;14.39;100.00
54369;BME280;40266;52.434;17.056;2023-08-06T01:40:21;99556.17;;;14.38;100.00
54369;BME280;40266;52.434;17.056;2023-08-06T01:43:04;99547.20;;;14.38;100.00
54369;BME280;40266;52.434;17.056;2023-08-06T01:45:48;99545.42;;;14.39;100.00
54369;BME280;40266;52.434;17.056;2023-08-06T01:48:31;99543.19;;;14.38;100.00
54369;BME280;40266;52.434;17.056;2023-08-06T01:51:14;99541.29;;;14.37;100.00
54369;BME280;40266;52.434;17.056;2023-08-06T01:53:57;99531.33;;;14.36;100.00
54369;BME280;40266;52.434;17.056;2023-08-06T01:56:40;99523.06;;;14.36;100.00
54369;BME280;40266;52.434;17.056;2023-08-06T01:59:23;99510.24;;;14.36;100.00
54369;BME280;40266;52.434;17.056;2023-08-06T02:02:06;99502.17;;;14.36;100.00
54369;BME280;40266;52.434;17.056;2023-08-06T02:04:49;99492.90;;;14.35;100.00
54369;BME280;40266;52.434;17.056;2023-08-06T02:07:32;99480.20;;;14.33;100.00
54369;BME280;40266;52.434;17.056;2023-08-06T02:10:14;99480.53;;;14.33;100.00
54369;BME280;40266;52.434;17.056;2023-08-06T02:12:57;99471.78;;;14.33;100.00
54369;BME280;40266;52.434;17.056;2023-08-06T02:15:44;99469.13;;;14.33;100.00
54369;BME280;40266;52.434;17.056;2023-08-06T02:18:30;99470.55;;;14.33;100.00
54369;BME280;40266;52.434;17.056;2023-08-06T02:21:12;99466.55;;;14.32;100.00
54369;BME280;40266;52.434;17.056;2023-08-06T02:23:55;99455.36;;;14.31;100.00
54369;BME280;40266;52.434;17.056;2023-08-06T02:26:38;99445.19;;;14.31;100.00
54369;BME280;40266;52.434;17.056;2023-08-06T02:29:21;99434.30;;;14.31;100.00
54369;BME280;40266;52.434;17.056;2023-08-06T02:32:04;99423.76;;;14.31;100.00
54369;BME280;40266;52.434;17.056;2023-08-06T02:34:48;99415.09;;;14.29;100.00
54369;BME280;40266;52.434;17.056;2023-08-06T02:37:33;99413.70;;;14.28;100.00
54369;BME280;40266;52.434;17.056;2023-08-06T02:40:17;99412.83;;;14.28;100.00
54369;BME280;40266;52.434;17.056;2023-08-06T02:43:00;99408.98;;;14.28;100.00
54369;BME280;40266;52.434;17.056;2023-08-06T02:45:46;99405.09;;;14.29;100.00
54369;BME280;40266;52.434;17.056;2023-08-06T02:48:29;99404.15;;;14.29;100.00
54369;BME280;40266;52.434;17.056;2023-08-06T02:51:12;99396.18;;;14.31;100.00
54369;BME280;40266;52.434;17.056;2023-08-06T02:53:55;99395.10;;;14.31;100.00
54369;BME280;40266;52.434;17.056;2023-08-06T02:56:38;99383.52;;;14.31;100.00
54369;BME280;40266;52.434;17.056;2023-08-06T02:59:27;99368.55;;;14.29;100.00
54369;BME280;40266;52.434;17.056;2023-08-06T03:02:18;99360.19;;;14.28;100.00
54369;BME280;40266;52.434;17.056;2023-08-06T03:05:08;99352.99;;;14.27;100.00
54369;BME280;40266;52.434;17.056;2023-08-06T03:07:54;99338.34;;;14.25;100.00
54369;BME280;40266;52.434;17.056;2023-08-06T03:10:40;99328.24;;;14.24;100.00
54369;BME280;40266;52.434;17.056;2023-08-06T03:13:25;99318.14;;;14.23;100.00
54369;BME280;40266;52.434;17.056;2023-08-06T03:16:08;99313.38;;;14.23;100.00
54369;BME280;40266;52.434;17.056;2023-08-06T03:18:52;99307.45;;;14.22;100.00
54369;BME280;40266;52.434;17.056;2023-08-06T03:21:36;99308.67;;;14.22;100.00
54369;BME280;40266;52.434;17.056;2023-08-06T03:24:19;99297.98;;;14.22;100.00
54369;BME280;40266;52.434;17.056;2023-08-06T03:27:02;99295.17;;;14.22;100.00
54369;BME280;40266;52.434;17.056;2023-08-06T03:29:49;99290.92;;;14.23;100.00
54369;BME280;40266;52.434;17.056;2023-08-06T03:32:32;99282.36;;;14.22;100.00
54369;BME280;40266;52.434;17.056;2023-08-06T03:35:16;99268.64;;;14.22;100.00
54369;BME280;40266;52.434;17.056;2023-08-06T03:37:59;99258.54;;;14.21;100.00
54369;BME280;40266;52.434;17.056;2023-08-06T03:40:43;99258.70;;;14.21;100.00
54369;BME280;40266;52.434;17.056;2023-08-06T03:43:26;99246.95;;;14.21;100.00
54369;BME280;40266;52.434;17.056;2023-08-06T03:46:10;99233.98;;;14.20;100.00
54369;BME280;40266;52.434;17.056;2023-08-06T03:48:53;99229.33;;;14.19;100.00
54369;BME280;40266;52.434;17.056;2023-08-06T03:51:35;99232.77;;;14.17;100.00
54369;BME280;40266;52.434;17.056;2023-08-06T03:54:18;99227.69;;;14.17;100.00
54369;BME280;40266;52.434;17.056;2023-08-06T03:57:01;99231.60;;;14.16;100.00
54369;BME280;40266;52.434;17.056;2023-08-06T03:59:44;99225.28;;;14.15;100.00
54369;BME280;40266;52.434;17.056;2023-08-06T04:02:38;99220.95;;;14.14;100.00
54369;BME280;40266;52.434;17.056;2023-08-06T04:05:21;99223.15;;;14.13;100.00
54369;BME280;40266;52.434;17.056;2023-08-06T04:08:04;99215.66;;;14.12;100.00
54369;BME280;40266;52.434;17.056;2023-08-06T04:10:51;99226.08;;;14.11;100.00
54369;BME280;40266;52.434;17.056;2023-08-06T04:13:35;99225.59;;;14.10;100.00
54369;BME280;40266;52.434;17.056;2023-08-06T04:16:19;99213.80;;;14.10;100.00
54369;BME280;40266;52.434;17.056;2023-08-06T04:19:02;99209.85;;;14.09;100.00
54369;BME280;40266;52.434;17.056;2023-08-06T04:21:45;99210.73;;;14.09;100.00
54369;BME280;40266;52.434;17.056;2023-08-06T04:24:28;99196.88;;;14.08;100.00
54369;BME280;40266;52.434;17.056;2023-08-06T04:27:13;99192.83;;;14.09;100.00
54369;BME280;40266;52.434;17.056;2023-08-06T04:29:57;99191.27;;;14.08;100.00
54369;BME280;40266;52.434;17.056;2023-08-06T04:32:41;99179.67;;;14.08;100.00
54369;BME280;40266;52.434;17.056;2023-08-06T04:35:25;99166.83;;;14.09;100.00
54369;BME280;40266;52.434;17.056;2023-08-06T04:38:08;99162.45;;;14.09;100.00
54369;BME280;40266;52.434;17.056;2023-08-06T04:40:52;99165.40;;;14.09;100.00
54369;BME280;40266;52.434;17.056;2023-08-06T04:43:36;99171.72;;;14.10;100.00
54369;BME280;40266;52.434;17.056;2023-08-06T04:46:19;99186.77;;;14.10;100.00
54369;BME280;40266;52.434;17.056;2023-08-06T04:49:02;99196.13;;;14.09;100.00
54369;BME280;40266;52.434;17.056;2023-08-06T04:51:45;99202.59;;;14.10;100.00
54369;BME280;40266;52.434;17.056;2023-08-06T04:54:28;99202.58;;;14.10;100.00
54369;BME280;40266;52.434;17.056;2023-08-06T04:57:10;99206.13;;;14.09;100.00
54369;BME280;40266;52.434;17.056;2023-08-06T04:59:53;99215.66;;;14.09;100.00
54369;BME280;40266;52.434;17.056;2023-08-06T05:02:36;99219.85;;;14.09;100.00
54369;BME280;40266;52.434;17.056;2023-08-06T05:05:21;99218.50;;;14.08;100.00
54369;BME280;40266;52.434;17.056;2023-08-06T05:08:04;99223.09;;;14.07;100.00
54369;BME280;40266;52.434;17.056;2023-08-06T05:10:47;99231.02;;;14.07;100.00
54369;BME280;40266;52.434;17.056;2023-08-06T05:13:30;99235.45;;;14.06;100.00
54369;BME280;40266;52.434;17.056;2023-08-06T05:16:13;99232.39;;;14.05;100.00
54369;BME280;40266;52.434;17.056;2023-08-06T05:18:56;99227.58;;;14.02;100.00
54369;BME280;40266;52.434;17.056;2023-08-06T05:21:38;99216.27;;;14.04;100.00
54369;BME280;40266;52.434;17.056;2023-08-06T05:24:21;99216.77;;;14.04;100.00
54369;BME280;40266;52.434;17.056;2023-08-06T05:27:05;99213.92;;;14.05;100.00
54369;BME280;40266;52.434;17.056;2023-08-06T05:29:48;99208.71;;;14.04;100.00
54369;BME280;40266;52.434;17.056;2023-08-06T05:32:31;99197.17;;;14.03;100.00
54369;BME280;40266;52.434;17.056;2023-08-06T05:35:13;99183.94;;;14.01;100.00
54369;BME280;40266;52.434;17.056;2023-08-06T05:37:57;99176.51;;;14.00;100.00
54369;BME280;40266;52.434;17.056;2023-08-06T05:40:40;99167.02;;;14.00;100.00
54369;BME280;40266;52.434;17.056;2023-08-06T05:43:23;99153.64;;;14.00;100.00
54369;BME280;40266;52.434;17.056;2023-08-06T05:46:06;99142.58;;;14.00;100.00
54369;BME280;40266;52.434;17.056;2023-08-06T05:48:49;99142.29;;;13.99;100.00
54369;BME280;40266;52.434;17.056;2023-08-06T05:51:33;99139.92;;;13.97;100.00
54369;BME280;40266;52.434;17.056;2023-08-06T05:54:16;99133.96;;;13.97;100.00
54369;BME280;40266;52.434;17.056;2023-08-06T05:56:59;99139.03;;;13.98;100.00
54369;BME280;40266;52.434;17.056;2023-08-06T05:59:42;99139.95;;;13.97;100.00
54369;BME280;40266;52.434;17.056;2023-08-06T06:02:25;99150.60;;;13.95;100.00
54369;BME280;40266;52.434;17.056;2023-08-06T06:05:08;99160.17;;;13.93;100.00
54369;BME280;40266;52.434;17.056;2023-08-06T06:07:51;99161.64;;;13.92;100.00
54369;BME280;40266;52.434;17.056;2023-08-06T06:10:35;99156.64;;;13.90;100.00
54369;BME280;40266;52.434;17.056;2023-08-06T06:13:18;99149.73;;;13.88;100.00
54369;BME280;40266;52.434;17.056;2023-08-06T06:16:00;99143.81;;;13.87;100.00
54369;BME280;40266;52.434;17.056;2023-08-06T06:18:44;99146.98;;;13.87;100.00
54369;BME280;40266;52.434;17.056;2023-08-06T06:21:26;99144.76;;;13.86;100.00
54369;BME280;40266;52.434;17.056;2023-08-06T06:24:09;99139.45;;;13.84;100.00
54369;BME280;40266;52.434;17.056;2023-08-06T06:26:52;99135.30;;;13.83;100.00
54369;BME280;40266;52.434;17.056;2023-08-06T06:29:35;99125.62;;;13.83;100.00
54369;BME280;40266;52.434;17.056;2023-08-06T06:32:18;99109.95;;;13.84;100.00
54369;BME280;40266;52.434;17.056;2023-08-06T06:35:01;99091.84;;;13.85;100.00
54369;BME280;40266;52.434;17.056;2023-08-06T06:37:44;99087.93;;;13.86;100.00
54369;BME280;40266;52.434;17.056;2023-08-06T06:40:26;99087.02;;;13.86;100.00
54369;BME280;40266;52.434;17.056;2023-08-06T06:43:09;99076.96;;;13.87;100.00
54369;BME280;40266;52.434;17.056;2023-08-06T06:45:53;99067.36;;;13.86;100.00
54369;BME280;40266;52.434;17.056;2023-08-06T06:48:36;99068.28;;;13.86;100.00
54369;BME280;40266;52.434;17.056;2023-08-06T06:51:19;99076.73;;;13.85;100.00
54369;BME280;40266;52.434;17.056;2023-08-06T06:54:02;99070.48;;;13.84;100.00
54369;BME280;40266;52.434;17.056;2023-08-06T06:56:45;99070.90;;;13.83;100.00
54369;BME280;40266;52.434;17.056;2023-08-06T06:59:28;99068.38;;;13.84;100.00
54369;BME280;40266;52.434;17.056;2023-08-06T07:02:11;99066.11;;;13.84;100.00
54369;BME280;40266;52.434;17.056;2023-08-06T07:04:54;99055.49;;;13.85;100.00
54369;BME280;40266;52.434;17.056;2023-08-06T07:07:37;99049.39;;;13.85;100.00
54369;BME280;40266;52.434;17.056;2023-08-06T07:10:20;99046.00;;;13.85;100.00
54369;BME280;40266;52.434;17.056;2023-08-06T07:13:03;99039.64;;;13.86;100.00
54369;BME280;40266;52.434;17.056;2023-08-06T07:15:46;99039.95;;;13.87;100.00
54369;BME280;40266;52.434;17.056;2023-08-06T07:18:29;99027.30;;;13.87;100.00
54369;BME280;40266;52.434;17.056;2023-08-06T07:21:11;99021.38;;;13.86;100.00
54369;BME280;40266;52.434;17.056;2023-08-06T07:23:54;99017.36;;;13.86;100.00
54369;BME280;40266;52.434;17.056;2023-08-06T07:26:38;99014.96;;;13.85;100.00
54369;BME280;40266;52.434;17.056;2023-08-06T07:29:21;99013.09;;;13.84;100.00
54369;BME280;40266;52.434;17.056;2023-08-06T07:32:06;99013.16;;;13.83;100.00
54369;BME280;40266;52.434;17.056;2023-08-06T07:34:50;99005.98;;;13.83;100.00
54369;BME280;40266;52.434;17.056;2023-08-06T07:37:35;99006.55;;;13.82;100.00
54369;BME280;40266;52.434;17.056;2023-08-06T07:40:18;99011.14;;;13.82;100.00
54369;BME280;40266;52.434;17.056;2023-08-06T07:43:01;99005.66;;;13.82;100.00
54369;BME280;40266;52.434;17.056;2023-08-06T07:45:44;99000.50;;;13.84;100.00
54369;BME280;40266;52.434;17.056;2023-08-06T07:48:27;99000.59;;;13.85;100.00
54369;BME280;40266;52.434;17.056;2023-08-06T07:51:10;98995.42;;;13.86;100.00
54369;BME280;40266;52.434;17.056;2023-08-06T07:53:53;98994.94;;;13.89;100.00
54369;BME280;40266;52.434;17.056;2023-08-06T07:56:36;98992.91;;;13.90;100.00
54369;BME280;40266;52.434;17.056;2023-08-06T07:59:20;98991.46;;;13.91;100.00
54369;BME280;40266;52.434;17.056;2023-08-06T08:02:04;98988.05;;;13.92;100.00
54369;BME280;40266;52.434;17.056;2023-08-06T08:04:47;98982.17;;;13.94;100.00
54369;BME280;40266;52.434;17.056;2023-08-06T08:07:30;98991.48;;;13.97;100.00
54369;BME280;40266;52.434;17.056;2023-08-06T08:10:13;98988.64;;;13.98;100.00
54369;BME280;40266;52.434;17.056;2023-08-06T08:12:56;98983.83;;;13.99;100.00
54369;BME280;40266;52.434;17.056;2023-08-06T08:15:39;98985.51;;;14.00;100.00
54369;BME280;40266;52.434;17.056;2023-08-06T08:18:22;98991.52;;;14.02;100.00
54369;BME280;40266;52.434;17.056;2023-08-06T08:21:06;98994.83;;;14.03;100.00
54369;BME280;40266;52.434;17.056;2023-08-06T08:23:48;98990.77;;;14.03;100.00
54369;BME280;40266;52.434;17.056;2023-08-06T08:26:31;98991.48;;;14.03;100.00
54369;BME280;40266;52.434;17.056;2023-08-06T08:29:14;98985.06;;;14.05;100.00
54369;BME280;40266;52.434;17.056;2023-08-06T08:31:57;98982.26;;;14.07;100.00
54369;BME280;40266;52.434;17.056;2023-08-06T08:34:40;98977.41;;;14.09;100.00
54369;BME280;40266;52.434;17.056;2023-08-06T08:37:23;98974.34;;;14.11;100.00
54369;BME280;40266;52.434;17.056;2023-08-06T08:40:07;98970.59;;;14.12;100.00
54369;BME280;40266;52.434;17.056;2023-08-06T08:42:51;98973.25;;;14.14;100.00
54369;BME280;40266;52.434;17.056;2023-08-06T08:45:34;98961.40;;;14.16;100.00
54369;BME280;40266;52.434;17.056;2023-08-06T08:48:22;98955.71;;;14.17;100.00
54369;BME280;40266;52.434;17.056;2023-08-06T08:51:06;98946.05;;;14.17;100.00
54369;BME280;40266;52.434;17.056;2023-08-06T08:53:49;98940.72;;;14.19;100.00
54369;BME280;40266;52.434;17.056;2023-08-06T08:56:33;98931.63;;;14.21;100.00
54369;BME280;40266;52.434;17.056;2023-08-06T08:59:16;98921.13;;;14.23;100.00
54369;BME280;40266;52.434;17.056;2023-08-06T09:02:00;98912.15;;;14.23;100.00
54369;BME280;40266;52.434;17.056;2023-08-06T09:04:44;98908.80;;;14.23;100.00
54369;BME280;40266;52.434;17.056;2023-08-06T09:07:29;98905.58;;;14.25;100.00
54369;BME280;40266;52.434;17.056;2023-08-06T09:10:16;98900.83;;;14.27;100.00
54369;BME280;40266;52.434;17.056;2023-08-06T09:13:00;98892.88;;;14.28;100.00
54369;BME280;40266;52.434;17.056;2023-08-06T09:15:44;98892.54;;;14.28;100.00
54369;BME280;40266;52.434;17.056;2023-08-06T09:18:31;98893.64;;;14.27;100.00
54369;BME280;40266;52.434;17.056;2023-08-06T09:21:15;98885.14;;;14.26;100.00
54369;BME280;40266;52.434;17.056;2023-08-06T09:23:59;98874.64;;;14.25;100.00
54369;BME280;40266;52.434;17.056;2023-08-06T09:26:44;98865.69;;;14.25;100.00
54369;BME280;40266;52.434;17.056;2023-08-06T09:29:31;98865.48;;;14.26;100.00
54369;BME280;40266;52.434;17.056;2023-08-06T09:32:15;98860.20;;;14.26;100.00
54369;BME280;40266;52.434;17.056;2023-08-06T09:34:58;98854.77;;;14.26;100.00
54369;BME280;40266;52.434;17.056;2023-08-06T09:37:41;98846.77;;;14.27;100.00
54369;BME280;40266;52.434;17.056;2023-08-06T09:40:25;98847.31;;;14.27;100.00
54369;BME280;40266;52.434;17.056;2023-08-06T09:43:11;98846.20;;;14.28;100.00
54369;BME280;40266;52.434;17.056;2023-08-06T09:45:54;98831.20;;;14.29;100.00
54369;BME280;40266;52.434;17.056;2023-08-06T09:48:38;98826.41;;;14.30;100.00
54369;BME280;40266;52.434;17.056;2023-08-06T09:51:21;98828.64;;;14.31;100.00
54369;BME280;40266;52.434;17.056;2023-08-06T09:54:04;98830.86;;;14.32;100.00
54369;BME280;40266;52.434;17.056;2023-08-06T09:57:08;98823.98;;;14.32;100.00
54369;BME280;40266;52.434;17.056;2023-08-06T09:59:52;98815.82;;;14.31;100.00
54369;BME280;40266;52.434;17.056;2023-08-06T10:02:39;98812.65;;;14.31;100.00
54369;BME280;40266;52.434;17.056;2023-08-06T10:05:23;98816.06;;;14.30;100.00
54369;BME280;40266;52.434;17.056;2023-08-06T10:08:07;98808.27;;;14.28;100.00
54369;BME280;40266;52.434;17.056;2023-08-06T10:10:49;98802.63;;;14.28;100.00
54369;BME280;40266;52.434;17.056;2023-08-06T10:13:37;98805.37;;;14.27;100.00
54369;BME280;40266;52.434;17.056;2023-08-06T10:16:21;98810.19;;;14.25;100.00
54369;BME280;40266;52.434;17.056;2023-08-06T10:19:05;98810.20;;;14.25;100.00
54369;BME280;40266;52.434;17.056;2023-08-06T10:22:09;98800.03;;;14.25;100.00
54369;BME280;40266;52.434;17.056;2023-08-06T10:24:55;98784.77;;;14.25;100.00
54369;BME280;40266;52.434;17.056;2023-08-06T10:27:53;98791.73;;;14.26;100.00
54369;BME280;40266;52.434;17.056;2023-08-06T10:30:47;98807.77;;;14.25;100.00
54369;BME280;40266;52.434;17.056;2023-08-06T10:33:46;98812.20;;;14.24;100.00
54369;BME280;40266;52.434;17.056;2023-08-06T10:36:30;98795.13;;;14.25;100.00
54369;BME280;40266;52.434;17.056;2023-08-06T10:39:13;98779.64;;;14.26;100.00
54369;BME280;40266;52.434;17.056;2023-08-06T10:42:22;98776.58;;;14.24;100.00
54369;BME280;40266;52.434;17.056;2023-08-06T10:47:57;98763.77;;;14.24;100.00
54369;BME280;40266;52.434;17.056;2023-08-06T10:50:41;98731.10;;;14.24;100.00
54369;BME280;40266;52.434;17.056;2023-08-06T10:53:25;98714.79;;;14.24;100.00
54369;BME280;40266;52.434;17.056;2023-08-06T10:56:14;98744.76;;;14.25;100.00
54369;BME280;40266;52.434;17.056;2023-08-06T10:58:58;98745.14;;;14.24;100.00
54369;BME280;40266;52.434;17.056;2023-08-06T11:01:42;98722.02;;;14.23;100.00
54369;BME280;40266;52.434;17.056;2023-08-06T11:04:25;98702.91;;;14.23;100.00
54369;BME280;40266;52.434;17.056;2023-08-06T11:07:13;98691.02;;;14.22;100.00
54369;BME280;40266;52.434;17.056;2023-08-06T11:10:03;98724.99;;;14.21;100.00
54369;BME280;40266;52.434;17.056;2023-08-06T11:12:46;98772.30;;;14.19;100.00
54369;BME280;40266;52.434;17.056;2023-08-06T11:15:30;98779.34;;;14.19;100.00
54369;BME280;40266;52.434;17.056;2023-08-06T11:18:13;98775.61;;;14.20;100.00
54369;BME280;40266;52.434;17.056;2023-08-06T11:20:59;98797.20;;;14.20;100.00
54369;BME280;40266;52.434;17.056;2023-08-06T11:23:42;98806.73;;;14.19;100.00
54369;BME280;40266;52.434;17.056;2023-08-06T11:26:25;98778.61;;;14.20;100.00
54369;BME280;40266;52.434;17.056;2023-08-06T11:29:10;98701.23;;;14.19;100.00
54369;BME280;40266;52.434;17.056;2023-08-06T11:31:53;98644.92;;;14.15;100.00
54369;BME280;40266;52.434;17.056;2023-08-06T11:34:37;98665.40;;;14.11;100.00
54369;BME280;40266;52.434;17.056;2023-08-06T11:37:21;98706.45;;;14.08;100.00
54369;BME280;40266;52.434;17.056;2023-08-06T11:40:08;98734.68;;;14.09;100.00
54369;BME280;40266;52.434;17.056;2023-08-06T11:42:52;98745.04;;;14.09;100.00
54369;BME280;40266;52.434;17.056;2023-08-06T11:45:35;98762.74;;;14.09;100.00
54369;BME280;40266;52.434;17.056;2023-08-06T11:48:18;98784.76;;;14.11;100.00
54369;BME280;40266;52.434;17.056;2023-08-06T11:51:01;98804.84;;;14.10;100.00
54369;BME280;40266;52.434;17.056;2023-08-06T11:53:51;98803.73;;;14.10;100.00
54369;BME280;40266;52.434;17.056;2023-08-06T11:56:36;98786.82;;;14.11;100.00
54369;BME280;40266;52.434;17.056;2023-08-06T11:59:19;98779.60;;;14.15;100.00
54369;BME280;40266;52.434;17.056;2023-08-06T12:02:08;98782.44;;;14.17;100.00
54369;BME280;40266;52.434;17.056;2023-08-06T12:05:02;98787.16;;;14.20;100.00
54369;BME280;40266;52.434;17.056;2023-08-06T12:07:49;98793.08;;;14.24;100.00
54369;BME280;40266;52.434;17.056;2023-08-06T12:10:32;98795.55;;;14.27;100.00
54369;BME280;40266;52.434;17.056;2023-08-06T12:13:15;98793.87;;;14.28;100.00
54369;BME280;40266;52.434;17.056;2023-08-06T12:15:58;98785.45;;;14.31;100.00
54369;BME280;40266;52.434;17.056;2023-08-06T12:18:41;98762.11;;;14.33;100.00
54369;BME280;40266;52.434;17.056;2023-08-06T12:21:23;98723.24;;;14.34;100.00
54369;BME280;40266;52.434;17.056;2023-08-06T12:24:06;98722.21;;;14.34;100.00
54369;BME280;40266;52.434;17.056;2023-08-06T12:26:51;98739.41;;;14.34;100.00
54369;BME280;40266;52.434;17.056;2023-08-06T12:29:35;98733.00;;;14.35;100.00
54369;BME280;40266;52.434;17.056;2023-08-06T12:32:18;98719.78;;;14.39;100.00
54369;BME280;40266;52.434;17.056;2023-08-06T12:35:01;98711.83;;;14.42;100.00
54369;BME280;40266;52.434;17.056;2023-08-06T12:37:45;98702.73;;;14.45;100.00
54369;BME280;40266;52.434;17.056;2023-08-06T12:40:28;98680.38;;;14.48;100.00
54369;BME280;40266;52.434;17.056;2023-08-06T12:43:20;98661.73;;;14.49;100.00
54369;BME280;40266;52.434;17.056;2023-08-06T12:46:03;98664.29;;;14.50;100.00
54369;BME280;40266;52.434;17.056;2023-08-06T12:48:47;98680.04;;;14.53;100.00
54369;BME280;40266;52.434;17.056;2023-08-06T12:51:32;98694.45;;;14.56;100.00
54369;BME280;40266;52.434;17.056;2023-08-06T12:54:17;98700.71;;;14.60;100.00
54369;BME280;40266;52.434;17.056;2023-08-06T12:57:00;98692.83;;;14.62;100.00
54369;BME280;40266;52.434;17.056;2023-08-06T12:59:43;98680.91;;;14.65;100.00
54369;BME280;40266;52.434;17.056;2023-08-06T13:02:26;98670.55;;;14.67;100.00
54369;BME280;40266;52.434;17.056;2023-08-06T13:05:12;98661.36;;;14.68;100.00
54369;BME280;40266;52.434;17.056;2023-08-06T13:07:55;98657.28;;;14.69;100.00
54369;BME280;40266;52.434;17.056;2023-08-06T13:10:38;98662.88;;;14.69;100.00
54369;BME280;40266;52.434;17.056;2023-08-06T13:13:21;98671.02;;;14.68;100.00
54369;BME280;40266;52.434;17.056;2023-08-06T13:16:04;98678.02;;;14.69;100.00
54369;BME280;40266;52.434;17.056;2023-08-06T13:18:47;98678.00;;;14.66;100.00
54369;BME280;40266;52.434;17.056;2023-08-06T13:21:34;98675.75;;;14.66;100.00
54369;BME280;40266;52.434;17.056;2023-08-06T13:24:19;98665.95;;;14.65;100.00
54369;BME280;40266;52.434;17.056;2023-08-06T13:27:02;98662.66;;;14.62;100.00
54369;BME280;40266;52.434;17.056;2023-08-06T13:29:45;98670.42;;;14.59;100.00
54369;BME280;40266;52.434;17.056;2023-08-06T13:32:28;98678.11;;;14.56;100.00
54369;BME280;40266;52.434;17.056;2023-08-06T13:35:11;98685.60;;;14.54;100.00
54369;BME280;40266;52.434;17.056;2023-08-06T13:37:55;98686.17;;;14.53;100.00
54369;BME280;40266;52.434;17.056;2023-08-06T13:40:37;98687.83;;;14.52;100.00
54369;BME280;40266;52.434;17.056;2023-08-06T13:43:20;98686.12;;;14.51;100.00
54369;BME280;40266;52.434;17.056;2023-08-06T13:46:03;98692.02;;;14.56;100.00
54369;BME280;40266;52.434;17.056;2023-08-06T13:48:47;98690.83;;;14.58;100.00
54369;BME280;40266;52.434;17.056;2023-08-06T13:51:33;98685.68;;;14.59;100.00
54369;BME280;40266;52.434;17.056;2023-08-06T13:54:18;98678.88;;;14.61;100.00
54369;BME280;40266;52.434;17.056;2023-08-06T13:57:03;98674.17;;;14.63;100.00
54369;BME280;40266;52.434;17.056;2023-08-06T13:59:46;98671.80;;;14.67;100.00
54369;BME280;40266;52.434;17.056;2023-08-06T14:02:29;98662.73;;;14.69;100.00
54369;BME280;40266;52.434;17.056;2023-08-06T14:05:12;98656.66;;;14.70;100.00
54369;BME280;40266;52.434;17.056;2023-08-06T14:07:55;98650.38;;;14.69;100.00
54369;BME280;40266;52.434;17.056;2023-08-06T14:10:38;98644.96;;;14.69;100.00
54369;BME280;40266;52.434;17.056;2023-08-06T14:13:22;98649.09;;;14.68;100.00